CYGX

Gillam Airport

Gillam, Manitoba, Canada
TAF CYGX 141838Z 1419/1507 28010G20KT P6SM FEW040 TEMPO 1419/1420 BKN040 BECMG 1500/1502 22006KT FM150300 22006KT P6SM SCT100 SCT240 RMK NXT FCST BY 150100Z
Issued Valid From Valid To
Dec-14 @ 18:38 UTC
(4 hours ago)
Dec-14 @ 19:00 UTC
(3 hours ago)
Dec-15 @ 07:00 UTC
(in 9 hours)
Dec-14 @ 19:00 to Dec-15 @ 00:00
TAF CYGX 141838Z 1419/1507 28010G20KT P6SM FEW040
Wind Visibility Clouds
280° at 10 knots
 Gusting to 20 knots
Greater than 6 miles
  • Few at 4,000' AGL
Expired Click to View Dec-14 @ 19:00 to Dec-14 @ 20:00
TEMPO 1419/1420 BKN040
Clouds
  • Broken at 4,000' AGL
Becoming Dec-15 @ 00:00 to Dec-15 @ 03:00
BECMG 1500/1502 22006KT
Wind Visibility Clouds
220° at 6 knots Greater than 6 miles
  • Few at 4,000' AGL
From Dec-15 @ 03:00 to Dec-15 @ 07:00
FM150300 22006KT P6SM SCT100 SCT240 RMK NXT FCST BY 150100Z
Wind Visibility Clouds
220° at 6 knots Greater than 6 miles
  • Scattered at 10,000' AGL
  • Scattered at 24,000' AGL
TAF CYGX 141838Z 1419/1507 28010G20KT P6SM FEW040 TEMPO 1419/1420 BKN040 BECMG 1500/1502 22006KT FM150300 22006KT P6SM SCT100 SCT240 RMK NXT FCST BY 150100Z
Issued Dec-14 @ 18:38 UTC
(4 hours ago)
Valid From Dec-14 @ 19:00 UTC
(3 hours ago)
Valid To Dec-15 @ 07:00 UTC
(in 9 hours)
Dec-14 @ 19:00 - Dec-15 @ 00:00
Wind Visibility
280° at 10 knots
 Gusting to 20 knots
Greater than 6 miles
Clouds
  • Few at 4,000' AGL
Dec-14 @ 19:00 - Dec-14 @ 20:00
Clouds
  • Broken at 4,000' AGL
Becoming Dec-15 @ 00:00 - Dec-15 @ 03:00
Wind Visibility
220° at 6 knots Greater than 6 miles
Clouds
  • Few at 4,000' AGL
From Dec-15 @ 03:00 - Dec-15 @ 07:00
Wind Visibility
220° at 6 knots Greater than 6 miles
Clouds
  • Scattered at 10,000' AGL
  • Scattered at 24,000' AGL